sensor_id;sensor_type;location;lat;lon;timestamp;P1;durP1;ratioP1;P2;durP2;ratioP2
69789;SDS011;57064;52.046;4.800;2023-07-08T00:01:12;4.55;;;3.00;;
69789;SDS011;57064;52.046;4.800;2023-07-08T00:03:40;5.13;;;2.70;;
69789;SDS011;57064;52.046;4.800;2023-07-08T00:06:18;6.30;;;3.10;;
69789;SDS011;57064;52.046;4.800;2023-07-08T00:08:47;4.38;;;2.70;;
69789;SDS011;57064;52.046;4.800;2023-07-08T00:11:14;5.38;;;2.67;;
69789;SDS011;57064;52.046;4.800;2023-07-08T00:13:40;6.95;;;2.78;;
69789;SDS011;57064;52.046;4.800;2023-07-08T00:16:14;6.53;;;2.60;;
69789;SDS011;57064;52.046;4.800;2023-07-08T00:18:42;5.53;;;2.47;;
69789;SDS011;57064;52.046;4.800;2023-07-08T00:21:08;6.85;;;2.70;;
69789;SDS011;57064;52.046;4.800;2023-07-08T00:23:40;5.70;;;3.05;;
69789;SDS011;57064;52.046;4.800;2023-07-08T00:26:20;5.65;;;2.85;;
69789;SDS011;57064;52.046;4.800;2023-07-08T00:28:49;4.13;;;2.80;;
69789;SDS011;57064;52.046;4.800;2023-07-08T00:31:15;5.97;;;3.17;;
69789;SDS011;57064;52.046;4.800;2023-07-08T00:33:48;4.32;;;2.85;;
69789;SDS011;57064;52.046;4.800;2023-07-08T00:36:15;5.80;;;3.08;;
69789;SDS011;57064;52.046;4.800;2023-07-08T00:38:42;5.18;;;3.25;;
69789;SDS011;57064;52.046;4.800;2023-07-08T00:41:23;5.78;;;2.80;;
69789;SDS011;57064;52.046;4.800;2023-07-08T00:43:59;6.78;;;3.40;;
69789;SDS011;57064;52.046;4.800;2023-07-08T00:49:41;4.13;;;2.53;;
69789;SDS011;57064;52.046;4.800;2023-07-08T00:54:44;5.60;;;2.58;;
69789;SDS011;57064;52.046;4.800;2023-07-08T00:57:10;6.80;;;2.80;;
69789;SDS011;57064;52.046;4.800;2023-07-08T00:59:48;4.47;;;2.95;;
69789;SDS011;57064;52.046;4.800;2023-07-08T01:02:21;3.67;;;2.45;;
69789;SDS011;57064;52.046;4.800;2023-07-08T01:07:24;5.50;;;2.53;;
69789;SDS011;57064;52.046;4.800;2023-07-08T01:09:58;5.90;;;2.50;;
69789;SDS011;57064;52.046;4.800;2023-07-08T01:12:32;3.35;;;2.20;;
69789;SDS011;57064;52.046;4.800;2023-07-08T01:15:00;4.28;;;2.60;;
69789;SDS011;57064;52.046;4.800;2023-07-08T01:17:28;4.00;;;2.50;;
69789;SDS011;57064;52.046;4.800;2023-07-08T01:19:57;5.82;;;2.70;;
69789;SDS011;57064;52.046;4.800;2023-07-08T01:22:30;5.65;;;2.90;;
69789;SDS011;57064;52.046;4.800;2023-07-08T01:25:00;6.68;;;2.90;;
69789;SDS011;57064;52.046;4.800;2023-07-08T01:27:28;3.63;;;2.45;;
69789;SDS011;57064;52.046;4.800;2023-07-08T01:29:59;4.03;;;2.83;;
69789;SDS011;57064;52.046;4.800;2023-07-08T01:32:26;4.30;;;2.25;;
69789;SDS011;57064;52.046;4.800;2023-07-08T01:34:54;4.43;;;2.55;;
69789;SDS011;57064;52.046;4.800;2023-07-08T01:38:09;4.93;;;2.33;;
69789;SDS011;57064;52.046;4.800;2023-07-08T01:40:31;4.75;;;2.90;;
69789;SDS011;57064;52.046;4.800;2023-07-08T01:42:59;5.23;;;2.90;;
69789;SDS011;57064;52.046;4.800;2023-07-08T01:45:27;4.80;;;2.58;;
69789;SDS011;57064;52.046;4.800;2023-07-08T01:47:57;4.57;;;3.00;;
69789;SDS011;57064;52.046;4.800;2023-07-08T01:50:49;4.90;;;2.67;;
69789;SDS011;57064;52.046;4.800;2023-07-08T01:53:27;3.80;;;2.38;;
69789;SDS011;57064;52.046;4.800;2023-07-08T01:55:58;3.83;;;2.85;;
69789;SDS011;57064;52.046;4.800;2023-07-08T01:58:24;5.40;;;3.30;;
69789;SDS011;57064;52.046;4.800;2023-07-08T02:00:51;5.35;;;3.17;;
69789;SDS011;57064;52.046;4.800;2023-07-08T02:03:18;4.50;;;2.92;;
69789;SDS011;57064;52.046;4.800;2023-07-08T02:05:44;4.28;;;2.95;;
69789;SDS011;57064;52.046;4.800;2023-07-08T02:08:10;5.88;;;3.88;;
69789;SDS011;57064;52.046;4.800;2023-07-08T02:10:38;5.60;;;2.95;;
69789;SDS011;57064;52.046;4.800;2023-07-08T02:13:05;5.35;;;3.35;;
69789;SDS011;57064;52.046;4.800;2023-07-08T02:15:31;4.75;;;2.72;;
69789;SDS011;57064;52.046;4.800;2023-07-08T02:17:58;5.57;;;3.03;;
69789;SDS011;57064;52.046;4.800;2023-07-08T02:20:24;7.40;;;3.10;;
69789;SDS011;57064;52.046;4.800;2023-07-08T02:22:50;4.85;;;3.00;;
69789;SDS011;57064;52.046;4.800;2023-07-08T02:25:16;4.60;;;2.78;;
69789;SDS011;57064;52.046;4.800;2023-07-08T02:27:42;5.30;;;3.33;;
69789;SDS011;57064;52.046;4.800;2023-07-08T02:30:08;5.93;;;3.00;;
69789;SDS011;57064;52.046;4.800;2023-07-08T02:32:35;4.35;;;3.15;;
69789;SDS011;57064;52.046;4.800;2023-07-08T02:35:03;6.55;;;3.28;;
69789;SDS011;57064;52.046;4.800;2023-07-08T02:37:31;8.85;;;3.38;;
69789;SDS011;57064;52.046;4.800;2023-07-08T02:39:57;6.03;;;3.90;;
69789;SDS011;57064;52.046;4.800;2023-07-08T02:42:23;5.10;;;3.78;;
69789;SDS011;57064;52.046;4.800;2023-07-08T02:44:50;6.88;;;3.60;;
69789;SDS011;57064;52.046;4.800;2023-07-08T02:47:16;6.53;;;3.35;;
69789;SDS011;57064;52.046;4.800;2023-07-08T02:49:42;5.82;;;3.70;;
69789;SDS011;57064;52.046;4.800;2023-07-08T02:52:08;4.55;;;3.20;;
69789;SDS011;57064;52.046;4.800;2023-07-08T02:54:35;5.50;;;3.42;;
69789;SDS011;57064;52.046;4.800;2023-07-08T02:57:01;5.60;;;3.30;;
69789;SDS011;57064;52.046;4.800;2023-07-08T02:59:27;7.15;;;4.32;;
69789;SDS011;57064;52.046;4.800;2023-07-08T03:01:53;6.63;;;3.40;;
69789;SDS011;57064;52.046;4.800;2023-07-08T03:04:19;6.18;;;3.30;;
69789;SDS011;57064;52.046;4.800;2023-07-08T03:06:47;5.63;;;3.40;;
69789;SDS011;57064;52.046;4.800;2023-07-08T03:09:14;7.20;;;3.60;;
69789;SDS011;57064;52.046;4.800;2023-07-08T03:11:41;5.72;;;3.22;;
69789;SDS011;57064;52.046;4.800;2023-07-08T03:14:07;5.63;;;3.30;;
69789;SDS011;57064;52.046;4.800;2023-07-08T03:16:33;6.53;;;3.28;;
69789;SDS011;57064;52.046;4.800;2023-07-08T03:18:59;4.90;;;3.22;;
69789;SDS011;57064;52.046;4.800;2023-07-08T03:21:25;5.40;;;3.83;;
69789;SDS011;57064;52.046;4.800;2023-07-08T03:23:52;5.68;;;3.38;;
69789;SDS011;57064;52.046;4.800;2023-07-08T03:26:20;6.07;;;4.32;;
69789;SDS011;57064;52.046;4.800;2023-07-08T03:28:48;5.50;;;3.40;;
69789;SDS011;57064;52.046;4.800;2023-07-08T03:31:15;7.38;;;3.30;;
69789;SDS011;57064;52.046;4.800;2023-07-08T03:33:41;5.30;;;3.33;;
69789;SDS011;57064;52.046;4.800;2023-07-08T03:36:15;5.65;;;3.72;;
69789;SDS011;57064;52.046;4.800;2023-07-08T03:38:53;6.90;;;3.60;;
69789;SDS011;57064;52.046;4.800;2023-07-08T03:41:21;6.28;;;3.25;;
69789;SDS011;57064;52.046;4.800;2023-07-08T03:43:48;5.70;;;3.53;;
69789;SDS011;57064;52.046;4.800;2023-07-08T03:46:16;7.50;;;3.55;;
69789;SDS011;57064;52.046;4.800;2023-07-08T03:48:43;5.40;;;3.60;;
69789;SDS011;57064;52.046;4.800;2023-07-08T03:51:10;5.88;;;3.50;;
69789;SDS011;57064;52.046;4.800;2023-07-08T03:53:45;5.13;;;3.33;;
69789;SDS011;57064;52.046;4.800;2023-07-08T03:56:11;7.43;;;3.55;;
69789;SDS011;57064;52.046;4.800;2023-07-08T03:58:38;5.50;;;3.67;;
69789;SDS011;57064;52.046;4.800;2023-07-08T04:01:04;6.22;;;3.40;;
69789;SDS011;57064;52.046;4.800;2023-07-08T04:03:34;5.90;;;3.47;;
69789;SDS011;57064;52.046;4.800;2023-07-08T04:06:00;5.35;;;3.22;;
69789;SDS011;57064;52.046;4.800;2023-07-08T04:08:26;6.28;;;3.25;;
69789;SDS011;57064;52.046;4.800;2023-07-08T04:10:53;4.53;;;3.40;;
69789;SDS011;57064;52.046;4.800;2023-07-08T04:13:19;4.93;;;2.97;;
69789;SDS011;57064;52.046;4.800;2023-07-08T04:15:45;4.72;;;2.88;;
69789;SDS011;57064;52.046;4.800;2023-07-08T04:18:18;7.25;;;3.75;;
69789;SDS011;57064;52.046;4.800;2023-07-08T04:20:44;7.07;;;3.03;;
69789;SDS011;57064;52.046;4.800;2023-07-08T04:23:10;4.30;;;2.85;;
69789;SDS011;57064;52.046;4.800;2023-07-08T04:25:36;4.65;;;2.95;;
69789;SDS011;57064;52.046;4.800;2023-07-08T04:28:02;6.43;;;3.42;;
69789;SDS011;57064;52.046;4.800;2023-07-08T04:30:28;6.65;;;3.72;;
69789;SDS011;57064;52.046;4.800;2023-07-08T04:32:54;5.20;;;3.00;;
69789;SDS011;57064;52.046;4.800;2023-07-08T04:35:21;7.13;;;2.75;;
69789;SDS011;57064;52.046;4.800;2023-07-08T04:37:47;7.25;;;2.58;;
69789;SDS011;57064;52.046;4.800;2023-07-08T04:40:16;6.85;;;2.90;;
69789;SDS011;57064;52.046;4.800;2023-07-08T04:42:44;7.00;;;3.47;;
69789;SDS011;57064;52.046;4.800;2023-07-08T04:45:12;4.80;;;2.80;;
69789;SDS011;57064;52.046;4.800;2023-07-08T04:47:40;5.15;;;2.75;;
69789;SDS011;57064;52.046;4.800;2023-07-08T04:50:07;4.15;;;3.20;;
69789;SDS011;57064;52.046;4.800;2023-07-08T04:52:35;5.80;;;2.65;;
69789;SDS011;57064;52.046;4.800;2023-07-08T04:55:01;6.13;;;3.08;;
69789;SDS011;57064;52.046;4.800;2023-07-08T04:57:28;4.00;;;3.03;;
69789;SDS011;57064;52.046;4.800;2023-07-08T04:59:54;5.72;;;2.90;;
69789;SDS011;57064;52.046;4.800;2023-07-08T05:02:20;3.78;;;2.78;;
69789;SDS011;57064;52.046;4.800;2023-07-08T05:04:46;4.03;;;2.90;;
69789;SDS011;57064;52.046;4.800;2023-07-08T05:07:12;3.88;;;2.60;;
69789;SDS011;57064;52.046;4.800;2023-07-08T05:09:39;4.53;;;2.80;;
69789;SDS011;57064;52.046;4.800;2023-07-08T05:12:05;5.88;;;3.00;;
69789;SDS011;57064;52.046;4.800;2023-07-08T05:14:31;5.65;;;2.78;;
69789;SDS011;57064;52.046;4.800;2023-07-08T05:16:57;4.15;;;2.80;;
69789;SDS011;57064;52.046;4.800;2023-07-08T05:19:23;3.85;;;2.83;;
69789;SDS011;57064;52.046;4.800;2023-07-08T05:21:50;4.72;;;3.00;;
69789;SDS011;57064;52.046;4.800;2023-07-08T05:24:18;5.47;;;2.65;;
69789;SDS011;57064;52.046;4.800;2023-07-08T05:26:44;7.68;;;3.10;;
69789;SDS011;57064;52.046;4.800;2023-07-08T05:29:10;3.50;;;2.83;;
69789;SDS011;57064;52.046;4.800;2023-07-08T05:31:36;3.90;;;2.63;;
69789;SDS011;57064;52.046;4.800;2023-07-08T05:34:02;7.35;;;3.47;;
69789;SDS011;57064;52.046;4.800;2023-07-08T05:36:28;5.32;;;2.90;;
69789;SDS011;57064;52.046;4.800;2023-07-08T05:38:55;3.90;;;2.67;;
69789;SDS011;57064;52.046;4.800;2023-07-08T05:41:21;5.60;;;2.85;;
69789;SDS011;57064;52.046;4.800;2023-07-08T05:43:48;7.63;;;3.30;;
69789;SDS011;57064;52.046;4.800;2023-07-08T05:46:14;4.32;;;2.60;;
69789;SDS011;57064;52.046;4.800;2023-07-08T05:48:40;4.38;;;2.42;;
69789;SDS011;57064;52.046;4.800;2023-07-08T05:51:06;4.88;;;2.75;;
69789;SDS011;57064;52.046;4.800;2023-07-08T05:53:32;3.97;;;2.60;;
69789;SDS011;57064;52.046;4.800;2023-07-08T05:55:58;5.72;;;2.67;;
69789;SDS011;57064;52.046;4.800;2023-07-08T05:58:24;5.00;;;2.60;;
69789;SDS011;57064;52.046;4.800;2023-07-08T06:00:54;5.57;;;3.05;;
69789;SDS011;57064;52.046;4.800;2023-07-08T06:03:22;4.45;;;2.80;;
69789;SDS011;57064;52.046;4.800;2023-07-08T06:05:48;3.78;;;2.55;;
69789;SDS011;57064;52.046;4.800;2023-07-08T06:08:14;6.30;;;2.75;;
69789;SDS011;57064;52.046;4.800;2023-07-08T06:10:44;4.82;;;3.05;;
69789;SDS011;57064;52.046;4.800;2023-07-08T06:13:11;3.88;;;2.78;;
69789;SDS011;57064;52.046;4.800;2023-07-08T06:15:38;6.63;;;3.30;;
69789;SDS011;57064;52.046;4.800;2023-07-08T06:18:04;6.80;;;3.08;;
69789;SDS011;57064;52.046;4.800;2023-07-08T06:20:31;4.90;;;3.05;;
69789;SDS011;57064;52.046;4.800;2023-07-08T06:22:57;6.38;;;3.25;;
69789;SDS011;57064;52.046;4.800;2023-07-08T06:25:23;6.65;;;3.45;;
69789;SDS011;57064;52.046;4.800;2023-07-08T06:27:49;4.85;;;2.85;;
69789;SDS011;57064;52.046;4.800;2023-07-08T06:30:15;4.65;;;2.95;;
69789;SDS011;57064;52.046;4.800;2023-07-08T06:32:41;4.78;;;3.00;;
69789;SDS011;57064;52.046;4.800;2023-07-08T06:35:07;8.65;;;3.00;;
69789;SDS011;57064;52.046;4.800;2023-07-08T06:37:34;4.95;;;3.10;;
69789;SDS011;57064;52.046;4.800;2023-07-08T06:40:00;4.53;;;2.92;;
69789;SDS011;57064;52.046;4.800;2023-07-08T06:42:28;4.57;;;2.58;;
69789;SDS011;57064;52.046;4.800;2023-07-08T06:44:54;5.90;;;2.95;;
69789;SDS011;57064;52.046;4.800;2023-07-08T06:47:21;7.85;;;3.38;;
69789;SDS011;57064;52.046;4.800;2023-07-08T06:49:47;7.45;;;2.80;;
69789;SDS011;57064;52.046;4.800;2023-07-08T06:52:13;3.83;;;2.63;;
69789;SDS011;57064;52.046;4.800;2023-07-08T06:54:40;6.07;;;2.90;;
69789;SDS011;57064;52.046;4.800;2023-07-08T06:57:06;4.47;;;3.00;;
69789;SDS011;57064;52.046;4.800;2023-07-08T06:59:33;5.22;;;2.97;;
69789;SDS011;57064;52.046;4.800;2023-07-08T07:02:00;5.05;;;2.72;;
69789;SDS011;57064;52.046;4.800;2023-07-08T07:04:27;4.20;;;2.97;;
69789;SDS011;57064;52.046;4.800;2023-07-08T07:06:55;5.45;;;3.05;;
69789;SDS011;57064;52.046;4.800;2023-07-08T07:09:21;4.18;;;2.75;;
69789;SDS011;57064;52.046;4.800;2023-07-08T07:11:47;6.05;;;2.55;;
69789;SDS011;57064;52.046;4.800;2023-07-08T07:14:13;5.57;;;2.88;;
69789;SDS011;57064;52.046;4.800;2023-07-08T07:16:40;4.78;;;3.22;;
69789;SDS011;57064;52.046;4.800;2023-07-08T07:19:07;6.10;;;3.22;;
69789;SDS011;57064;52.046;4.800;2023-07-08T07:21:33;5.63;;;3.10;;
69789;SDS011;57064;52.046;4.800;2023-07-08T07:23:59;5.13;;;3.13;;
69789;SDS011;57064;52.046;4.800;2023-07-08T07:26:25;5.95;;;3.15;;
69789;SDS011;57064;52.046;4.800;2023-07-08T07:28:51;4.75;;;2.90;;
69789;SDS011;57064;52.046;4.800;2023-07-08T07:31:17;5.18;;;2.85;;
69789;SDS011;57064;52.046;4.800;2023-07-08T07:33:43;5.50;;;3.30;;
69789;SDS011;57064;52.046;4.800;2023-07-08T07:36:09;4.53;;;3.20;;
69789;SDS011;57064;52.046;4.800;2023-07-08T07:38:35;5.32;;;2.97;;
69789;SDS011;57064;52.046;4.800;2023-07-08T07:41:02;7.65;;;3.58;;
69789;SDS011;57064;52.046;4.800;2023-07-08T07:43:31;4.68;;;2.53;;
69789;SDS011;57064;52.046;4.800;2023-07-08T07:45:58;4.70;;;2.95;;
69789;SDS011;57064;52.046;4.800;2023-07-08T07:48:25;6.45;;;2.90;;
69789;SDS011;57064;52.046;4.800;2023-07-08T07:50:51;6.50;;;3.00;;
69789;SDS011;57064;52.046;4.800;2023-07-08T07:53:17;6.10;;;3.08;;
69789;SDS011;57064;52.046;4.800;2023-07-08T07:55:44;8.57;;;3.30;;
69789;SDS011;57064;52.046;4.800;2023-07-08T07:58:10;5.35;;;3.00;;
69789;SDS011;57064;52.046;4.800;2023-07-08T08:00:39;4.45;;;2.88;;
69789;SDS011;57064;52.046;4.800;2023-07-08T08:03:05;7.20;;;3.17;;
69789;SDS011;57064;52.046;4.800;2023-07-08T08:05:31;6.97;;;3.28;;
69789;SDS011;57064;52.046;4.800;2023-07-08T08:07:57;7.65;;;3.40;;
69789;SDS011;57064;52.046;4.800;2023-07-08T08:10:24;7.45;;;3.30;;
69789;SDS011;57064;52.046;4.800;2023-07-08T08:12:50;5.80;;;3.53;;
69789;SDS011;57064;52.046;4.800;2023-07-08T08:15:17;6.20;;;3.67;;
69789;SDS011;57064;52.046;4.800;2023-07-08T08:17:44;5.47;;;3.15;;
69789;SDS011;57064;52.046;4.800;2023-07-08T08:20:13;9.07;;;4.13;;
69789;SDS011;57064;52.046;4.800;2023-07-08T08:22:40;6.22;;;3.75;;
69789;SDS011;57064;52.046;4.800;2023-07-08T08:25:06;8.25;;;3.28;;
69789;SDS011;57064;52.046;4.800;2023-07-08T08:27:33;6.78;;;3.83;;
69789;SDS011;57064;52.046;4.800;2023-07-08T08:29:59;8.85;;;3.45;;
69789;SDS011;57064;52.046;4.800;2023-07-08T08:32:25;5.25;;;2.92;;
69789;SDS011;57064;52.046;4.800;2023-07-08T08:34:51;7.00;;;3.55;;
69789;SDS011;57064;52.046;4.800;2023-07-08T08:37:17;5.60;;;3.25;;
69789;SDS011;57064;52.046;4.800;2023-07-08T08:39:43;12.60;;;4.07;;
69789;SDS011;57064;52.046;4.800;2023-07-08T08:42:25;5.90;;;3.45;;
69789;SDS011;57064;52.046;4.800;2023-07-08T08:44:51;6.95;;;4.03;;
69789;SDS011;57064;52.046;4.800;2023-07-08T08:49:57;5.82;;;3.72;;
69789;SDS011;57064;52.046;4.800;2023-07-08T08:52:30;7.97;;;3.80;;
69789;SDS011;57064;52.046;4.800;2023-07-08T08:54:56;8.00;;;4.03;;
69789;SDS011;57064;52.046;4.800;2023-07-08T08:57:40;7.40;;;3.90;;
69789;SDS011;57064;52.046;4.800;2023-07-08T09:00:08;6.57;;;3.53;;
69789;SDS011;57064;52.046;4.800;2023-07-08T09:02:38;8.98;;;4.10;;
69789;SDS011;57064;52.046;4.800;2023-07-08T09:05:16;7.15;;;3.92;;
69789;SDS011;57064;52.046;4.800;2023-07-08T09:10:35;7.80;;;3.90;;
69789;SDS011;57064;52.046;4.800;2023-07-08T09:13:30;7.63;;;4.88;;
69789;SDS011;57064;52.046;4.800;2023-07-08T09:16:06;6.95;;;3.92;;
69789;SDS011;57064;52.046;4.800;2023-07-08T09:18:48;10.00;;;4.68;;
69789;SDS011;57064;52.046;4.800;2023-07-08T09:22:07;7.53;;;4.10;;
69789;SDS011;57064;52.046;4.800;2023-07-08T09:24:19;8.88;;;4.10;;
69789;SDS011;57064;52.046;4.800;2023-07-08T09:27:00;9.52;;;4.38;;
69789;SDS011;57064;52.046;4.800;2023-07-08T09:29:27;8.88;;;4.18;;
69789;SDS011;57064;52.046;4.800;2023-07-08T09:31:53;8.98;;;4.28;;
69789;SDS011;57064;52.046;4.800;2023-07-08T09:34:23;7.32;;;4.20;;
69789;SDS011;57064;52.046;4.800;2023-07-08T09:37:02;6.70;;;4.45;;
69789;SDS011;57064;52.046;4.800;2023-07-08T09:39:42;11.38;;;4.45;;
69789;SDS011;57064;52.046;4.800;2023-07-08T09:42:08;8.52;;;4.47;;
69789;SDS011;57064;52.046;4.800;2023-07-08T09:44:35;6.03;;;4.55;;
69789;SDS011;57064;52.046;4.800;2023-07-08T09:47:15;8.38;;;4.00;;
69789;SDS011;57064;52.046;4.800;2023-07-08T09:49:51;7.85;;;4.40;;
69789;SDS011;57064;52.046;4.800;2023-07-08T09:52:18;5.63;;;3.92;;
69789;SDS011;57064;52.046;4.800;2023-07-08T09:54:45;9.30;;;4.65;;
69789;SDS011;57064;52.046;4.800;2023-07-08T09:59:48;7.72;;;4.00;;
69789;SDS011;57064;52.046;4.800;2023-07-08T10:04:46;8.48;;;4.90;;
69789;SDS011;57064;52.046;4.800;2023-07-08T10:07:16;10.18;;;4.82;;
69789;SDS011;57064;52.046;4.800;2023-07-08T10:09:43;9.98;;;4.50;;
69789;SDS011;57064;52.046;4.800;2023-07-08T10:12:11;8.48;;;4.68;;
69789;SDS011;57064;52.046;4.800;2023-07-08T10:14:41;6.20;;;3.97;;
69789;SDS011;57064;52.046;4.800;2023-07-08T10:17:21;5.78;;;4.25;;
69789;SDS011;57064;52.046;4.800;2023-07-08T10:19:48;9.85;;;4.57;;
69789;SDS011;57064;52.046;4.800;2023-07-08T10:27:46;9.25;;;4.60;;
69789;SDS011;57064;52.046;4.800;2023-07-08T10:30:26;8.52;;;4.53;;
69789;SDS011;57064;52.046;4.800;2023-07-08T10:35:28;8.77;;;4.43;;
69789;SDS011;57064;52.046;4.800;2023-07-08T11:08:45;11.45;;;5.38;;
69789;SDS011;57064;52.046;4.800;2023-07-08T11:11:27;8.65;;;4.68;;
69789;SDS011;57064;52.046;4.800;2023-07-08T11:14:12;7.43;;;4.90;;
69789;SDS011;57064;52.046;4.800;2023-07-08T11:16:45;9.52;;;5.07;;
69789;SDS011;57064;52.046;4.800;2023-07-08T11:19:21;8.60;;;5.28;;
69789;SDS011;57064;52.046;4.800;2023-07-08T11:21:58;10.90;;;5.43;;
69789;SDS011;57064;52.046;4.800;2023-07-08T11:32:39;8.27;;;5.45;;
69789;SDS011;57064;52.046;4.800;2023-07-08T11:35:15;9.07;;;4.55;;
69789;SDS011;57064;52.046;4.800;2023-07-08T11:37:46;8.75;;;4.90;;
69789;SDS011;57064;52.046;4.800;2023-07-08T11:40:19;10.35;;;5.03;;
69789;SDS011;57064;52.046;4.800;2023-07-08T11:42:48;8.32;;;4.97;;
69789;SDS011;57064;52.046;4.800;2023-07-08T11:48:06;8.65;;;5.28;;
69789;SDS011;57064;52.046;4.800;2023-07-08T11:50:46;8.10;;;4.60;;
69789;SDS011;57064;52.046;4.800;2023-07-08T11:56:23;8.15;;;4.50;;
69789;SDS011;57064;52.046;4.800;2023-07-08T11:58:52;12.45;;;5.35;;
69789;SDS011;57064;52.046;4.800;2023-07-08T12:03:49;8.00;;;4.72;;
69789;SDS011;57064;52.046;4.800;2023-07-08T12:08:55;8.35;;;4.70;;
69789;SDS011;57064;52.046;4.800;2023-07-08T12:11:32;8.50;;;5.20;;
69789;SDS011;57064;52.046;4.800;2023-07-08T12:14:00;8.15;;;4.88;;
69789;SDS011;57064;52.046;4.800;2023-07-08T12:16:28;9.23;;;5.30;;
69789;SDS011;57064;52.046;4.800;2023-07-08T12:18:56;8.40;;;5.40;;
69789;SDS011;57064;52.046;4.800;2023-07-08T12:21:25;7.43;;;4.60;;
69789;SDS011;57064;52.046;4.800;2023-07-08T12:23:52;9.65;;;4.68;;
69789;SDS011;57064;52.046;4.800;2023-07-08T12:26:19;7.88;;;4.55;;
69789;SDS011;57064;52.046;4.800;2023-07-08T12:28:52;9.63;;;5.20;;
69789;SDS011;57064;52.046;4.800;2023-07-08T12:31:20;7.97;;;4.40;;
69789;SDS011;57064;52.046;4.800;2023-07-08T12:33:47;6.95;;;4.47;;
69789;SDS011;57064;52.046;4.800;2023-07-08T12:38:49;8.30;;;4.47;;
69789;SDS011;57064;52.046;4.800;2023-07-08T12:41:18;9.02;;;4.80;;
69789;SDS011;57064;52.046;4.800;2023-07-08T12:43:57;8.77;;;4.60;;
69789;SDS011;57064;52.046;4.800;2023-07-08T12:46:24;7.57;;;4.97;;
69789;SDS011;57064;52.046;4.800;2023-07-08T12:48:51;9.18;;;4.28;;
69789;SDS011;57064;52.046;4.800;2023-07-08T12:51:18;6.53;;;4.18;;
69789;SDS011;57064;52.046;4.800;2023-07-08T12:53:51;6.82;;;4.35;;
69789;SDS011;57064;52.046;4.800;2023-07-08T12:56:18;6.57;;;4.47;;
69789;SDS011;57064;52.046;4.800;2023-07-08T12:58:50;7.55;;;4.47;;
69789;SDS011;57064;52.046;4.800;2023-07-08T13:01:22;6.18;;;4.22;;
69789;SDS011;57064;52.046;4.800;2023-07-08T13:03:54;7.20;;;4.53;;
69789;SDS011;57064;52.046;4.800;2023-07-08T13:06:24;6.45;;;3.95;;
69789;SDS011;57064;52.046;4.800;2023-07-08T13:08:53;7.30;;;3.97;;
69789;SDS011;57064;52.046;4.800;2023-07-08T13:11:29;9.60;;;4.78;;
69789;SDS011;57064;52.046;4.800;2023-07-08T13:13:56;8.63;;;4.55;;
69789;SDS011;57064;52.046;4.800;2023-07-08T13:16:26;9.00;;;5.05;;
69789;SDS011;57064;52.046;4.800;2023-07-08T13:18:56;8.57;;;4.47;;
69789;SDS011;57064;52.046;4.800;2023-07-08T13:21:22;9.75;;;5.47;;
69789;SDS011;57064;52.046;4.800;2023-07-08T13:23:49;9.88;;;4.90;;
69789;SDS011;57064;52.046;4.800;2023-07-08T13:26:17;9.60;;;4.43;;
69789;SDS011;57064;52.046;4.800;2023-07-08T13:28:47;9.07;;;5.10;;
69789;SDS011;57064;52.046;4.800;2023-07-08T13:31:23;11.68;;;4.90;;
69789;SDS011;57064;52.046;4.800;2023-07-08T13:33:56;9.23;;;4.55;;
69789;SDS011;57064;52.046;4.800;2023-07-08T13:36:32;9.55;;;5.13;;
69789;SDS011;57064;52.046;4.800;2023-07-08T13:39:08;7.70;;;4.82;;
69789;SDS011;57064;52.046;4.800;2023-07-08T13:41:42;6.63;;;4.43;;
69789;SDS011;57064;52.046;4.800;2023-07-08T13:44:09;8.82;;;5.10;;
69789;SDS011;57064;52.046;4.800;2023-07-08T13:46:39;8.10;;;4.63;;
69789;SDS011;57064;52.046;4.800;2023-07-08T13:52:05;9.02;;;4.63;;
69789;SDS011;57064;52.046;4.800;2023-07-08T13:54:37;13.90;;;4.75;;
69789;SDS011;57064;52.046;4.800;2023-07-08T13:57:14;7.63;;;5.32;;
69789;SDS011;57064;52.046;4.800;2023-07-08T13:59:42;7.05;;;4.65;;
69789;SDS011;57064;52.046;4.800;2023-07-08T14:02:22;10.60;;;5.00;;
69789;SDS011;57064;52.046;4.800;2023-07-08T14:04:51;7.20;;;4.63;;
69789;SDS011;57064;52.046;4.800;2023-07-08T14:07:20;7.78;;;4.57;;
69789;SDS011;57064;52.046;4.800;2023-07-08T14:09:50;8.15;;;5.30;;
69789;SDS011;57064;52.046;4.800;2023-07-08T14:12:17;7.15;;;4.65;;
69789;SDS011;57064;52.046;4.800;2023-07-08T14:14:44;8.82;;;5.07;;
69789;SDS011;57064;52.046;4.800;2023-07-08T14:17:11;8.93;;;5.07;;
69789;SDS011;57064;52.046;4.800;2023-07-08T14:19:40;10.55;;;4.63;;
69789;SDS011;57064;52.046;4.800;2023-07-08T14:24:38;10.00;;;4.55;;
69789;SDS011;57064;52.046;4.800;2023-07-08T14:27:07;7.93;;;4.57;;
69789;SDS011;57064;52.046;4.800;2023-07-08T14:29:37;10.10;;;4.57;;
69789;SDS011;57064;52.046;4.800;2023-07-08T14:32:04;10.35;;;5.00;;
69789;SDS011;57064;52.046;4.800;2023-07-08T14:34:36;8.43;;;4.75;;
69789;SDS011;57064;52.046;4.800;2023-07-08T14:37:04;8.98;;;4.82;;
69789;SDS011;57064;52.046;4.800;2023-07-08T14:39:39;12.35;;;4.65;;
69789;SDS011;57064;52.046;4.800;2023-07-08T14:42:08;8.90;;;5.18;;
69789;SDS011;57064;52.046;4.800;2023-07-08T14:44:37;6.45;;;4.35;;
69789;SDS011;57064;52.046;4.800;2023-07-08T14:47:10;10.48;;;4.93;;
69789;SDS011;57064;52.046;4.800;2023-07-08T14:49:37;8.90;;;4.88;;
69789;SDS011;57064;52.046;4.800;2023-07-08T14:52:04;7.45;;;4.93;;
69789;SDS011;57064;52.046;4.800;2023-07-08T14:54:31;9.85;;;5.47;;
69789;SDS011;57064;52.046;4.800;2023-07-08T14:56:57;7.75;;;4.88;;
69789;SDS011;57064;52.046;4.800;2023-07-08T14:59:25;7.90;;;4.97;;
69789;SDS011;57064;52.046;4.800;2023-07-08T15:01:54;11.00;;;4.93;;
69789;SDS011;57064;52.046;4.800;2023-07-08T15:04:22;8.43;;;5.03;;
69789;SDS011;57064;52.046;4.800;2023-07-08T15:06:48;9.63;;;5.13;;
69789;SDS011;57064;52.046;4.800;2023-07-08T15:09:15;12.02;;;5.25;;
69789;SDS011;57064;52.046;4.800;2023-07-08T15:11:45;8.90;;;5.15;;
69789;SDS011;57064;52.046;4.800;2023-07-08T15:14:18;8.27;;;5.20;;
69789;SDS011;57064;52.046;4.800;2023-07-08T15:16:49;8.65;;;5.40;;
69789;SDS011;57064;52.046;4.800;2023-07-08T15:19:17;10.20;;;5.50;;
69789;SDS011;57064;52.046;4.800;2023-07-08T15:21:44;8.30;;;4.82;;
69789;SDS011;57064;52.046;4.800;2023-07-08T15:24:11;11.20;;;5.43;;
69789;SDS011;57064;52.046;4.800;2023-07-08T15:26:39;6.90;;;5.00;;
69789;SDS011;57064;52.046;4.800;2023-07-08T15:29:16;8.25;;;5.13;;
69789;SDS011;57064;52.046;4.800;2023-07-08T15:31:46;7.88;;;4.93;;
69789;SDS011;57064;52.046;4.800;2023-07-08T15:34:13;10.27;;;5.53;;
69789;SDS011;57064;52.046;4.800;2023-07-08T15:36:41;9.95;;;5.32;;
69789;SDS011;57064;52.046;4.800;2023-07-08T15:39:07;9.32;;;5.32;;
69789;SDS011;57064;52.046;4.800;2023-07-08T15:41:34;10.88;;;5.45;;
69789;SDS011;57064;52.046;4.800;2023-07-08T15:44:03;11.43;;;5.25;;
69789;SDS011;57064;52.046;4.800;2023-07-08T15:46:43;6.95;;;5.07;;
69789;SDS011;57064;52.046;4.800;2023-07-08T15:51:40;9.98;;;5.10;;
69789;SDS011;57064;52.046;4.800;2023-07-08T15:54:07;7.75;;;4.93;;
69789;SDS011;57064;52.046;4.800;2023-07-08T15:56:33;7.97;;;5.15;;
69789;SDS011;57064;52.046;4.800;2023-07-08T15:58:59;10.45;;;5.65;;
69789;SDS011;57064;52.046;4.800;2023-07-08T16:01:25;9.88;;;5.43;;
69789;SDS011;57064;52.046;4.800;2023-07-08T16:03:52;10.60;;;5.68;;
69789;SDS011;57064;52.046;4.800;2023-07-08T16:06:18;12.38;;;5.72;;
69789;SDS011;57064;52.046;4.800;2023-07-08T16:08:45;9.18;;;5.03;;
69789;SDS011;57064;52.046;4.800;2023-07-08T16:11:13;8.00;;;5.82;;
69789;SDS011;57064;52.046;4.800;2023-07-08T16:13:41;11.35;;;6.00;;
69789;SDS011;57064;52.046;4.800;2023-07-08T16:16:12;8.70;;;5.25;;
69789;SDS011;57064;52.046;4.800;2023-07-08T16:18:39;11.97;;;5.33;;
69789;SDS011;57064;52.046;4.800;2023-07-08T16:21:06;8.30;;;5.18;;
69789;SDS011;57064;52.046;4.800;2023-07-08T16:23:32;8.07;;;5.18;;